sensor_id;sensor_type;location;lat;lon;timestamp;temperature;humidity
67275;DHT22;55463;52.324;5.122;2023-03-01T00:00:38;-0.92;99.99
67275;DHT22;55463;52.324;5.122;2023-03-01T00:03:04;-0.98;99.99
67275;DHT22;55463;52.324;5.122;2023-03-01T00:05:29;-0.91;99.99
67275;DHT22;55463;52.324;5.122;2023-03-01T00:07:55;-0.92;99.99
67275;DHT22;55463;52.324;5.122;2023-03-01T00:10:20;-0.83;99.99
67275;DHT22;55463;52.324;5.122;2023-03-01T00:12:46;-0.87;99.99
67275;DHT22;55463;52.324;5.122;2023-03-01T00:15:11;-0.84;99.99
67275;DHT22;55463;52.324;5.122;2023-03-01T00:17:37;-0.78;99.99
67275;DHT22;55463;52.324;5.122;2023-03-01T00:20:03;-0.85;99.99
67275;DHT22;55463;52.324;5.122;2023-03-01T00:22:28;-0.85;99.99
67275;DHT22;55463;52.324;5.122;2023-03-01T00:24:54;-0.94;99.99
67275;DHT22;55463;52.324;5.122;2023-03-01T00:27:19;-1.02;99.99
67275;DHT22;55463;52.324;5.122;2023-03-01T00:29:45;-1.06;99.99
67275;DHT22;55463;52.324;5.122;2023-03-01T00:32:10;-1.11;99.99
67275;DHT22;55463;52.324;5.122;2023-03-01T00:34:36;-1.08;99.99
67275;DHT22;55463;52.324;5.122;2023-03-01T00:37:01;-1.12;99.99
67275;DHT22;55463;52.324;5.122;2023-03-01T00:39:31;-1.12;99.99
67275;DHT22;55463;52.324;5.122;2023-03-01T00:41:57;-1.11;99.99
67275;DHT22;55463;52.324;5.122;2023-03-01T00:44:22;-1.19;99.99
67275;DHT22;55463;52.324;5.122;2023-03-01T00:46:47;-1.23;99.99
67275;DHT22;55463;52.324;5.122;2023-03-01T00:49:13;-1.37;99.99
67275;DHT22;55463;52.324;5.122;2023-03-01T00:51:39;-1.42;99.99
67275;DHT22;55463;52.324;5.122;2023-03-01T00:54:08;-1.48;99.99
67275;DHT22;55463;52.324;5.122;2023-03-01T00:56:34;-1.44;99.99
67275;DHT22;55463;52.324;5.122;2023-03-01T00:58:59;-1.40;99.99
67275;DHT22;55463;52.324;5.122;2023-03-01T01:01:28;-1.42;99.99
67275;DHT22;55463;52.324;5.122;2023-03-01T01:06:26;-1.50;99.99
67275;DHT22;55463;52.324;5.122;2023-03-01T01:08:52;-1.61;99.99
67275;DHT22;55463;52.324;5.122;2023-03-01T01:11:19;-1.60;99.99
67275;DHT22;55463;52.324;5.122;2023-03-01T01:13:46;-1.60;99.99
67275;DHT22;55463;52.324;5.122;2023-03-01T01:16:12;-1.63;99.99
67275;DHT22;55463;52.324;5.122;2023-03-01T01:18:38;-1.74;99.99
67275;DHT22;55463;52.324;5.122;2023-03-01T01:21:09;-1.94;99.99
67275;DHT22;55463;52.324;5.122;2023-03-01T01:23:34;-2.12;99.99
67275;DHT22;55463;52.324;5.122;2023-03-01T01:26:15;-2.22;99.99
67275;DHT22;55463;52.324;5.122;2023-03-01T01:28:41;-2.32;99.99
67275;DHT22;55463;52.324;5.122;2023-03-01T01:31:07;-2.44;99.99
67275;DHT22;55463;52.324;5.122;2023-03-01T01:33:33;-2.37;99.99
67275;DHT22;55463;52.324;5.122;2023-03-01T01:35:58;-2.40;99.99
67275;DHT22;55463;52.324;5.122;2023-03-01T01:38:24;-2.54;99.99
67275;DHT22;55463;52.324;5.122;2023-03-01T01:40:50;-2.60;99.99
67275;DHT22;55463;52.324;5.122;2023-03-01T01:43:23;-2.62;99.99
67275;DHT22;55463;52.324;5.122;2023-03-01T01:45:49;-2.67;99.99
67275;DHT22;55463;52.324;5.122;2023-03-01T01:48:21;-2.64;99.99
67275;DHT22;55463;52.324;5.122;2023-03-01T01:50:55;-2.57;99.99
67275;DHT22;55463;52.324;5.122;2023-03-01T01:53:22;-2.47;99.99
67275;DHT22;55463;52.324;5.122;2023-03-01T01:55:53;-2.41;99.99
67275;DHT22;55463;52.324;5.122;2023-03-01T01:58:22;-2.40;99.99
67275;DHT22;55463;52.324;5.122;2023-03-01T02:00:49;-2.37;99.99
67275;DHT22;55463;52.324;5.122;2023-03-01T02:03:23;-2.30;99.99
67275;DHT22;55463;52.324;5.122;2023-03-01T02:05:57;-2.33;99.99
67275;DHT22;55463;52.324;5.122;2023-03-01T02:08:28;-2.39;99.99
67275;DHT22;55463;52.324;5.122;2023-03-01T02:10:56;-2.32;99.99
67275;DHT22;55463;52.324;5.122;2023-03-01T02:13:22;-2.05;99.99
67275;DHT22;55463;52.324;5.122;2023-03-01T02:15:49;-2.01;99.99
67275;DHT22;55463;52.324;5.122;2023-03-01T02:18:18;-2.12;99.99
67275;DHT22;55463;52.324;5.122;2023-03-01T02:23:28;-2.37;99.99
67275;DHT22;55463;52.324;5.122;2023-03-01T02:25:58;-2.41;99.99
67275;DHT22;55463;52.324;5.122;2023-03-01T02:28:33;-2.46;99.99
67275;DHT22;55463;52.324;5.122;2023-03-01T02:31:01;-2.44;99.99
67275;DHT22;55463;52.324;5.122;2023-03-01T02:33:46;-2.44;99.99
67275;DHT22;55463;52.324;5.122;2023-03-01T02:36:44;-2.46;99.99
67275;DHT22;55463;52.324;5.122;2023-03-01T02:39:14;-2.56;99.99
67275;DHT22;55463;52.324;5.122;2023-03-01T02:41:45;-2.60;99.99
67275;DHT22;55463;52.324;5.122;2023-03-01T02:44:12;-2.54;99.99
67275;DHT22;55463;52.324;5.122;2023-03-01T02:46:44;-2.51;99.99
67275;DHT22;55463;52.324;5.122;2023-03-01T02:49:39;-2.50;99.99
67275;DHT22;55463;52.324;5.122;2023-03-01T02:52:12;-2.46;99.99
67275;DHT22;55463;52.324;5.122;2023-03-01T02:54:48;-2.48;99.99
67275;DHT22;55463;52.324;5.122;2023-03-01T02:57:15;-2.50;99.99
67275;DHT22;55463;52.324;5.122;2023-03-01T02:59:41;-2.56;99.99
67275;DHT22;55463;52.324;5.122;2023-03-01T03:02:21;-2.62;99.99
67275;DHT22;55463;52.324;5.122;2023-03-01T03:07:33;-2.60;99.99
67275;DHT22;55463;52.324;5.122;2023-03-01T03:10:00;-2.58;99.99
67275;DHT22;55463;52.324;5.122;2023-03-01T03:12:25;-2.61;99.99
67275;DHT22;55463;52.324;5.122;2023-03-01T03:14:50;-2.64;99.99
67275;DHT22;55463;52.324;5.122;2023-03-01T03:17:16;-2.71;99.99
67275;DHT22;55463;52.324;5.122;2023-03-01T03:19:41;-2.84;99.99
67275;DHT22;55463;52.324;5.122;2023-03-01T03:22:13;-2.85;99.99
67275;DHT22;55463;52.324;5.122;2023-03-01T03:24:38;-2.88;99.99
67275;DHT22;55463;52.324;5.122;2023-03-01T03:27:04;-2.86;99.99
67275;DHT22;55463;52.324;5.122;2023-03-01T03:29:30;-2.91;99.99
67275;DHT22;55463;52.324;5.122;2023-03-01T03:31:56;-3.02;99.99
67275;DHT22;55463;52.324;5.122;2023-03-01T03:34:21;-3.13;99.99
67275;DHT22;55463;52.324;5.122;2023-03-01T03:36:46;-3.29;99.99
67275;DHT22;55463;52.324;5.122;2023-03-01T03:39:12;-3.38;99.99
67275;DHT22;55463;52.324;5.122;2023-03-01T03:41:37;-3.41;99.99
67275;DHT22;55463;52.324;5.122;2023-03-01T03:44:03;-3.50;99.99
67275;DHT22;55463;52.324;5.122;2023-03-01T03:46:28;-3.52;99.99
67275;DHT22;55463;52.324;5.122;2023-03-01T03:48:53;-3.61;99.99
67275;DHT22;55463;52.324;5.122;2023-03-01T03:51:19;-3.68;99.99
67275;DHT22;55463;52.324;5.122;2023-03-01T03:53:45;-3.71;99.99
67275;DHT22;55463;52.324;5.122;2023-03-01T03:56:11;-3.74;99.99
67275;DHT22;55463;52.324;5.122;2023-03-01T03:58:37;-3.79;99.99
67275;DHT22;55463;52.324;5.122;2023-03-01T04:01:03;-3.82;99.99
67275;DHT22;55463;52.324;5.122;2023-03-01T04:03:30;-3.83;99.99
67275;DHT22;55463;52.324;5.122;2023-03-01T04:05:58;-3.87;99.99
67275;DHT22;55463;52.324;5.122;2023-03-01T04:08:24;-3.85;99.99
67275;DHT22;55463;52.324;5.122;2023-03-01T04:10:52;-3.86;99.99
67275;DHT22;55463;52.324;5.122;2023-03-01T04:13:22;-3.82;99.99
67275;DHT22;55463;52.324;5.122;2023-03-01T04:15:52;-3.82;99.99
67275;DHT22;55463;52.324;5.122;2023-03-01T04:18:19;-3.76;99.99
67275;DHT22;55463;52.324;5.122;2023-03-01T04:20:45;-3.71;99.99
67275;DHT22;55463;52.324;5.122;2023-03-01T04:23:13;-3.69;99.99
67275;DHT22;55463;52.324;5.122;2023-03-01T04:28:40;-3.85;99.99
67275;DHT22;55463;52.324;5.122;2023-03-01T04:31:16;-3.81;99.99
67275;DHT22;55463;52.324;5.122;2023-03-01T04:33:43;-3.81;99.99
67275;DHT22;55463;52.324;5.122;2023-03-01T04:36:10;-3.81;99.99
67275;DHT22;55463;52.324;5.122;2023-03-01T04:38:36;-3.76;99.99
67275;DHT22;55463;52.324;5.122;2023-03-01T04:41:04;-3.72;99.99
67275;DHT22;55463;52.324;5.122;2023-03-01T04:43:29;-3.74;99.99
67275;DHT22;55463;52.324;5.122;2023-03-01T04:46:00;-3.71;99.99
67275;DHT22;55463;52.324;5.122;2023-03-01T04:48:28;-3.78;99.99
67275;DHT22;55463;52.324;5.122;2023-03-01T04:50:53;-3.82;99.99
67275;DHT22;55463;52.324;5.122;2023-03-01T04:53:18;-3.81;99.99
67275;DHT22;55463;52.324;5.122;2023-03-01T04:55:44;-3.82;99.99
67275;DHT22;55463;52.324;5.122;2023-03-01T04:58:09;-3.89;99.99
67275;DHT22;55463;52.324;5.122;2023-03-01T05:00:34;-3.93;99.99
67275;DHT22;55463;52.324;5.122;2023-03-01T05:03:00;-3.92;99.99
67275;DHT22;55463;52.324;5.122;2023-03-01T05:05:32;-3.85;99.99
67275;DHT22;55463;52.324;5.122;2023-03-01T05:08:01;-3.83;99.99
67275;DHT22;55463;52.324;5.122;2023-03-01T05:10:29;-3.85;99.99
67275;DHT22;55463;52.324;5.122;2023-03-01T05:12:55;-3.85;99.99
67275;DHT22;55463;52.324;5.122;2023-03-01T05:15:22;-3.82;99.99
67275;DHT22;55463;52.324;5.122;2023-03-01T05:17:51;-3.66;99.99
67275;DHT22;55463;52.324;5.122;2023-03-01T05:20:17;-3.58;99.99
67275;DHT22;55463;52.324;5.122;2023-03-01T05:22:42;-3.52;99.99
67275;DHT22;55463;52.324;5.122;2023-03-01T05:25:08;-3.61;99.99
67275;DHT22;55463;52.324;5.122;2023-03-01T05:27:34;-3.69;99.99
67275;DHT22;55463;52.324;5.122;2023-03-01T05:30:00;-3.79;99.99
67275;DHT22;55463;52.324;5.122;2023-03-01T05:32:48;-3.81;99.99
67275;DHT22;55463;52.324;5.122;2023-03-01T05:35:16;-3.79;99.99
67275;DHT22;55463;52.324;5.122;2023-03-01T05:37:42;-3.89;99.99
67275;DHT22;55463;52.324;5.122;2023-03-01T05:40:14;-3.66;99.99
67275;DHT22;55463;52.324;5.122;2023-03-01T05:42:52;-3.57;99.99
67275;DHT22;55463;52.324;5.122;2023-03-01T05:45:18;-3.58;99.99
67275;DHT22;55463;52.324;5.122;2023-03-01T05:47:45;-3.61;99.99
67275;DHT22;55463;52.324;5.122;2023-03-01T05:50:19;-3.72;99.99
67275;DHT22;55463;52.324;5.122;2023-03-01T05:52:49;-3.81;99.99
67275;DHT22;55463;52.324;5.122;2023-03-01T05:55:17;-3.78;99.99
67275;DHT22;55463;52.324;5.122;2023-03-01T05:57:42;-3.65;99.99
67275;DHT22;55463;52.324;5.122;2023-03-01T06:00:09;-3.69;99.99
67275;DHT22;55463;52.324;5.122;2023-03-01T06:02:34;-3.59;99.99
67275;DHT22;55463;52.324;5.122;2023-03-01T06:05:00;-3.57;99.99
67275;DHT22;55463;52.324;5.122;2023-03-01T06:07:25;-3.59;99.99
67275;DHT22;55463;52.324;5.122;2023-03-01T06:09:51;-3.62;99.99
67275;DHT22;55463;52.324;5.122;2023-03-01T06:12:16;-3.68;99.99
67275;DHT22;55463;52.324;5.122;2023-03-01T06:14:42;-3.71;99.99
67275;DHT22;55463;52.324;5.122;2023-03-01T06:17:07;-3.74;99.99
67275;DHT22;55463;52.324;5.122;2023-03-01T06:19:33;-3.75;99.99
67275;DHT22;55463;52.324;5.122;2023-03-01T06:21:58;-3.64;99.99
67275;DHT22;55463;52.324;5.122;2023-03-01T06:24:24;-3.65;99.99
67275;DHT22;55463;52.324;5.122;2023-03-01T06:26:49;-3.64;99.99
67275;DHT22;55463;52.324;5.122;2023-03-01T06:29:14;-3.69;99.99
67275;DHT22;55463;52.324;5.122;2023-03-01T06:31:40;-3.64;99.99
67275;DHT22;55463;52.324;5.122;2023-03-01T06:34:05;-3.46;99.99
67275;DHT22;55463;52.324;5.122;2023-03-01T06:36:31;-3.33;99.99
67275;DHT22;55463;52.324;5.122;2023-03-01T06:38:56;-3.23;99.99
67275;DHT22;55463;52.324;5.122;2023-03-01T06:41:21;-3.12;99.99
67275;DHT22;55463;52.324;5.122;2023-03-01T06:43:47;-2.91;99.99
67275;DHT22;55463;52.324;5.122;2023-03-01T06:46:12;-2.79;99.99
67275;DHT22;55463;52.324;5.122;2023-03-01T06:48:37;-2.65;99.99
67275;DHT22;55463;52.324;5.122;2023-03-01T06:51:03;-2.57;99.99
67275;DHT22;55463;52.324;5.122;2023-03-01T06:53:29;-2.51;99.99
67275;DHT22;55463;52.324;5.122;2023-03-01T06:55:58;-2.46;99.99
67275;DHT22;55463;52.324;5.122;2023-03-01T06:58:25;-2.48;99.99
67275;DHT22;55463;52.324;5.122;2023-03-01T07:00:50;-2.60;99.99
67275;DHT22;55463;52.324;5.122;2023-03-01T07:03:16;-2.61;99.99
67275;DHT22;55463;52.324;5.122;2023-03-01T07:05:41;-2.72;99.99
67275;DHT22;55463;52.324;5.122;2023-03-01T07:08:07;-2.71;99.99
67275;DHT22;55463;52.324;5.122;2023-03-01T07:10:32;-2.76;99.99
67275;DHT22;55463;52.324;5.122;2023-03-01T07:12:58;-2.68;99.99
67275;DHT22;55463;52.324;5.122;2023-03-01T07:15:25;-2.64;99.99
67275;DHT22;55463;52.324;5.122;2023-03-01T07:17:50;-2.50;99.99
67275;DHT22;55463;52.324;5.122;2023-03-01T07:20:20;-2.28;99.99
67275;DHT22;55463;52.324;5.122;2023-03-01T07:22:49;-1.99;99.99
67275;DHT22;55463;52.324;5.122;2023-03-01T07:25:15;-1.72;99.99
67275;DHT22;55463;52.324;5.122;2023-03-01T07:27:40;-1.36;99.99
67275;DHT22;55463;52.324;5.122;2023-03-01T07:30:06;-1.05;99.99
67275;DHT22;55463;52.324;5.122;2023-03-01T07:32:32;-0.81;99.99
67275;DHT22;55463;52.324;5.122;2023-03-01T07:34:57;-0.60;99.99
67275;DHT22;55463;52.324;5.122;2023-03-01T07:37:23;-0.47;99.99
67275;DHT22;55463;52.324;5.122;2023-03-01T07:39:48;-0.37;99.99
67275;DHT22;55463;52.324;5.122;2023-03-01T07:42:13;-0.28;99.99
67275;DHT22;55463;52.324;5.122;2023-03-01T07:44:39;-0.18;99.99
67275;DHT22;55463;52.324;5.122;2023-03-01T07:47:04;-0.09;99.99
67275;DHT22;55463;52.324;5.122;2023-03-01T07:49:30;-0.05;99.99
67275;DHT22;55463;52.324;5.122;2023-03-01T07:51:55;-0.01;99.99
67275;DHT22;55463;52.324;5.122;2023-03-01T07:54:21;0.02;99.99
67275;DHT22;55463;52.324;5.122;2023-03-01T07:56:46;0.12;99.99
67275;DHT22;55463;52.324;5.122;2023-03-01T07:59:12;0.15;99.99
67275;DHT22;55463;52.324;5.122;2023-03-01T08:01:37;0.17;99.99
67275;DHT22;55463;52.324;5.122;2023-03-01T08:04:03;0.17;99.99
67275;DHT22;55463;52.324;5.122;2023-03-01T08:06:34;0.16;99.99
67275;DHT22;55463;52.324;5.122;2023-03-01T08:08:59;0.10;99.99
67275;DHT22;55463;52.324;5.122;2023-03-01T08:11:24;0.05;99.99
67275;DHT22;55463;52.324;5.122;2023-03-01T08:13:50;-0.01;99.99
67275;DHT22;55463;52.324;5.122;2023-03-01T08:16:15;-0.06;99.99
67275;DHT22;55463;52.324;5.122;2023-03-01T08:18:42;-0.13;99.99
67275;DHT22;55463;52.324;5.122;2023-03-01T08:21:09;-0.15;99.99
67275;DHT22;55463;52.324;5.122;2023-03-01T08:23:35;-0.19;99.99
67275;DHT22;55463;52.324;5.122;2023-03-01T08:26:11;-0.05;99.99
67275;DHT22;55463;52.324;5.122;2023-03-01T08:28:37;0.05;99.99
67275;DHT22;55463;52.324;5.122;2023-03-01T08:31:12;0.12;99.99
67275;DHT22;55463;52.324;5.122;2023-03-01T08:33:38;0.23;99.99
67275;DHT22;55463;52.324;5.122;2023-03-01T08:36:05;0.29;99.99
67275;DHT22;55463;52.324;5.122;2023-03-01T08:38:32;0.30;99.99
67275;DHT22;55463;52.324;5.122;2023-03-01T08:41:02;0.36;99.99
67275;DHT22;55463;52.324;5.122;2023-03-01T08:43:28;0.43;99.99
67275;DHT22;55463;52.324;5.122;2023-03-01T08:45:54;0.49;99.99
67275;DHT22;55463;52.324;5.122;2023-03-01T08:48:19;0.53;99.99
67275;DHT22;55463;52.324;5.122;2023-03-01T08:50:44;0.54;99.99
67275;DHT22;55463;52.324;5.122;2023-03-01T08:53:10;0.58;99.99
67275;DHT22;55463;52.324;5.122;2023-03-01T08:55:35;0.62;99.99
67275;DHT22;55463;52.324;5.122;2023-03-01T08:58:00;0.67;99.99
67275;DHT22;55463;52.324;5.122;2023-03-01T09:00:26;0.75;99.99
67275;DHT22;55463;52.324;5.122;2023-03-01T09:02:51;0.84;99.99
67275;DHT22;55463;52.324;5.122;2023-03-01T09:05:17;0.92;99.99
67275;DHT22;55463;52.324;5.122;2023-03-01T09:07:42;0.96;99.99
67275;DHT22;55463;52.324;5.122;2023-03-01T09:10:08;1.07;99.99
67275;DHT22;55463;52.324;5.122;2023-03-01T09:12:34;1.10;99.99
67275;DHT22;55463;52.324;5.122;2023-03-01T09:14:59;1.19;99.99
67275;DHT22;55463;52.324;5.122;2023-03-01T09:17:25;1.30;99.99
67275;DHT22;55463;52.324;5.122;2023-03-01T09:19:50;1.40;99.99
67275;DHT22;55463;52.324;5.122;2023-03-01T09:22:15;1.50;99.99
67275;DHT22;55463;52.324;5.122;2023-03-01T09:24:41;1.64;99.99
67275;DHT22;55463;52.324;5.122;2023-03-01T09:27:06;1.75;99.99
67275;DHT22;55463;52.324;5.122;2023-03-01T09:29:37;1.81;99.07
67275;DHT22;55463;52.324;5.122;2023-03-01T09:32:11;1.86;97.59
67275;DHT22;55463;52.324;5.122;2023-03-01T09:34:36;2.01;96.37
67275;DHT22;55463;52.324;5.122;2023-03-01T09:37:20;2.16;94.79
67275;DHT22;55463;52.324;5.122;2023-03-01T09:39:46;2.20;94.76
67275;DHT22;55463;52.324;5.122;2023-03-01T09:42:11;2.27;94.71
67275;DHT22;55463;52.324;5.122;2023-03-01T09:44:44;2.38;92.76
67275;DHT22;55463;52.324;5.122;2023-03-01T09:47:23;2.50;92.50
67275;DHT22;55463;52.324;5.122;2023-03-01T09:50:05;2.60;91.36
67275;DHT22;55463;52.324;5.122;2023-03-01T09:55:20;2.75;91.49
67275;DHT22;55463;52.324;5.122;2023-03-01T09:57:55;2.92;91.60
67275;DHT22;55463;52.324;5.122;2023-03-01T10:03:22;3.28;90.20
67275;DHT22;55463;52.324;5.122;2023-03-01T10:06:08;3.40;89.90
67275;DHT22;55463;52.324;5.122;2023-03-01T10:08:40;3.47;90.40
67275;DHT22;55463;52.324;5.122;2023-03-01T10:11:20;3.57;91.18
67275;DHT22;55463;52.324;5.122;2023-03-01T10:13:52;3.68;90.44
67275;DHT22;55463;52.324;5.122;2023-03-01T10:16:24;3.76;89.41
67275;DHT22;55463;52.324;5.122;2023-03-01T10:19:03;3.75;90.33
67275;DHT22;55463;52.324;5.122;2023-03-01T10:21:30;3.76;90.86
67275;DHT22;55463;52.324;5.122;2023-03-01T10:24:10;3.78;91.63
67275;DHT22;55463;52.324;5.122;2023-03-01T10:26:44;3.90;90.40
67275;DHT22;55463;52.324;5.122;2023-03-01T10:29:12;4.09;88.53
67275;DHT22;55463;52.324;5.122;2023-03-01T10:31:43;4.18;87.74
67275;DHT22;55463;52.324;5.122;2023-03-01T10:34:26;4.33;86.58
67275;DHT22;55463;52.324;5.122;2023-03-01T10:36:56;4.48;83.27
67275;DHT22;55463;52.324;5.122;2023-03-01T10:39:24;4.40;82.51
67275;DHT22;55463;52.324;5.122;2023-03-01T10:41:59;4.44;82.33
67275;DHT22;55463;52.324;5.122;2023-03-01T10:44:43;4.54;78.41
67275;DHT22;55463;52.324;5.122;2023-03-01T10:47:16;4.59;77.91
67275;DHT22;55463;52.324;5.122;2023-03-01T10:50:05;4.61;78.49
67275;DHT22;55463;52.324;5.122;2023-03-01T10:52:41;4.67;77.35
67275;DHT22;55463;52.324;5.122;2023-03-01T10:57:41;4.57;78.97
67275;DHT22;55463;52.324;5.122;2023-03-01T11:00:25;4.55;76.25
67275;DHT22;55463;52.324;5.122;2023-03-01T11:03:12;4.65;79.26
67275;DHT22;55463;52.324;5.122;2023-03-01T11:08:31;4.90;75.11
67275;DHT22;55463;52.324;5.122;2023-03-01T11:13:31;4.95;74.48
67275;DHT22;55463;52.324;5.122;2023-03-01T11:16:00;4.92;75.68
67275;DHT22;55463;52.324;5.122;2023-03-01T11:18:26;4.89;77.70
67275;DHT22;55463;52.324;5.122;2023-03-01T11:20:55;5.00;75.07
67275;DHT22;55463;52.324;5.122;2023-03-01T11:23:21;5.17;71.45
67275;DHT22;55463;52.324;5.122;2023-03-01T11:25:59;5.14;72.79
67275;DHT22;55463;52.324;5.122;2023-03-01T11:28:28;5.04;73.65
67275;DHT22;55463;52.324;5.122;2023-03-01T11:30:58;5.03;74.92
67275;DHT22;55463;52.324;5.122;2023-03-01T11:33:57;5.09;75.78
67275;DHT22;55463;52.324;5.122;2023-03-01T11:36:32;5.04;75.54
67275;DHT22;55463;52.324;5.122;2023-03-01T11:39:17;5.17;75.15
67275;DHT22;55463;52.324;5.122;2023-03-01T11:41:48;5.27;72.41
67275;DHT22;55463;52.324;5.122;2023-03-01T11:44:25;5.20;73.48
67275;DHT22;55463;52.324;5.122;2023-03-01T11:53:06;5.34;72.70
67275;DHT22;55463;52.324;5.122;2023-03-01T11:55:28;5.35;72.70
67275;DHT22;55463;52.324;5.122;2023-03-01T12:03:42;5.47;71.85
67275;DHT22;55463;52.324;5.122;2023-03-01T12:09:23;5.60;69.96
67275;DHT22;55463;52.324;5.122;2023-03-01T12:26:08;5.86;68.57
67275;DHT22;55463;52.324;5.122;2023-03-01T12:50:04;6.17;69.30
67275;DHT22;55463;52.324;5.122;2023-03-01T12:52:41;6.14;69.85
67275;DHT22;55463;52.324;5.122;2023-03-01T12:55:27;6.18;69.59
67275;DHT22;55463;52.324;5.122;2023-03-01T13:11:56;6.61;65.14
67275;DHT22;55463;52.324;5.122;2023-03-01T13:16:50;6.66;65.99
67275;DHT22;55463;52.324;5.122;2023-03-01T13:19:19;6.75;65.73
67275;DHT22;55463;52.324;5.122;2023-03-01T13:21:46;6.71;66.09
67275;DHT22;55463;52.324;5.122;2023-03-01T13:24:28;6.71;65.71
67275;DHT22;55463;52.324;5.122;2023-03-01T13:29:47;6.77;66.61
67275;DHT22;55463;52.324;5.122;2023-03-01T13:32:20;6.73;65.58
67275;DHT22;55463;52.324;5.122;2023-03-01T13:34:48;6.68;65.28
67275;DHT22;55463;52.324;5.122;2023-03-01T13:37:27;6.69;65.77
67275;DHT22;55463;52.324;5.122;2023-03-01T13:39:56;6.83;64.83
67275;DHT22;55463;52.324;5.122;2023-03-01T13:42:40;7.13;66.23
67275;DHT22;55463;52.324;5.122;2023-03-01T13:45:23;7.47;61.98
67275;DHT22;55463;52.324;5.122;2023-03-01T13:47:57;7.79;61.87
67275;DHT22;55463;52.324;5.122;2023-03-01T13:50:29;8.11;63.37
67275;DHT22;55463;52.324;5.122;2023-03-01T13:52:58;8.07;61.63
67275;DHT22;55463;52.324;5.122;2023-03-01T13:55:26;8.11;60.26
67275;DHT22;55463;52.324;5.122;2023-03-01T13:57:57;8.24;61.93
67275;DHT22;55463;52.324;5.122;2023-03-01T14:00:38;8.27;60.41
67275;DHT22;55463;52.324;5.122;2023-03-01T14:03:12;8.22;60.45
67275;DHT22;55463;52.324;5.122;2023-03-01T14:05:41;8.29;60.28
67275;DHT22;55463;52.324;5.122;2023-03-01T14:08:25;8.46;61.29
67275;DHT22;55463;52.324;5.122;2023-03-01T14:11:07;8.65;60.28
67275;DHT22;55463;52.324;5.122;2023-03-01T14:13:38;8.67;61.03
67275;DHT22;55463;52.324;5.122;2023-03-01T14:19:12;8.69;58.19
67275;DHT22;55463;52.324;5.122;2023-03-01T14:21:41;8.32;58.94
67275;DHT22;55463;52.324;5.122;2023-03-01T14:24:17;7.93;59.12
67275;DHT22;55463;52.324;5.122;2023-03-01T14:26:42;7.62;61.17
67275;DHT22;55463;52.324;5.122;2023-03-01T14:29:44;7.32;62.95
67275;DHT22;55463;52.324;5.122;2023-03-01T14:32:18;7.31;64.58
67275;DHT22;55463;52.324;5.122;2023-03-01T14:34:46;7.79;61.08
67275;DHT22;55463;52.324;5.122;2023-03-01T14:37:20;8.11;59.62
67275;DHT22;55463;52.324;5.122;2023-03-01T14:39:46;8.52;59.14
67275;DHT22;55463;52.324;5.122;2023-03-01T14:42:13;8.75;58.33
67275;DHT22;55463;52.324;5.122;2023-03-01T14:44:44;8.99;58.86
67275;DHT22;55463;52.324;5.122;2023-03-01T14:47:25;9.17;58.24
67275;DHT22;55463;52.324;5.122;2023-03-01T14:49:57;9.15;58.25
67275;DHT22;55463;52.324;5.122;2023-03-01T14:52:39;9.12;58.74
67275;DHT22;55463;52.324;5.122;2023-03-01T14:55:11;9.11;57.12
67275;DHT22;55463;52.324;5.122;2023-03-01T14:57:43;9.35;55.90
67275;DHT22;55463;52.324;5.122;2023-03-01T15:00:23;9.12;55.59
67275;DHT22;55463;52.324;5.122;2023-03-01T15:02:51;9.31;56.44
67275;DHT22;55463;52.324;5.122;2023-03-01T15:05:24;9.39;58.28
67275;DHT22;55463;52.324;5.122;2023-03-01T15:07:51;9.42;59.24
67275;DHT22;55463;52.324;5.122;2023-03-01T15:10:21;9.22;57.76
67275;DHT22;55463;52.324;5.122;2023-03-01T15:12:47;9.28;57.54
67275;DHT22;55463;52.324;5.122;2023-03-01T15:15:34;9.40;56.97
67275;DHT22;55463;52.324;5.122;2023-03-01T15:18:20;9.27;56.60
67275;DHT22;55463;52.324;5.122;2023-03-01T15:20:48;9.17;58.06
67275;DHT22;55463;52.324;5.122;2023-03-01T15:23:26;8.80;57.06
67275;DHT22;55463;52.324;5.122;2023-03-01T15:25:53;8.32;58.60
67275;DHT22;55463;52.324;5.122;2023-03-01T15:28:26;7.90;60.97
67275;DHT22;55463;52.324;5.122;2023-03-01T15:30:58;7.67;61.63
67275;DHT22;55463;52.324;5.122;2023-03-01T15:35:53;7.36;60.98
67275;DHT22;55463;52.324;5.122;2023-03-01T15:41:02;7.21;61.23
67275;DHT22;55463;52.324;5.122;2023-03-01T15:46:03;6.99;63.03
67275;DHT22;55463;52.324;5.122;2023-03-01T15:48:29;7.00;62.57
67275;DHT22;55463;52.324;5.122;2023-03-01T15:50:57;7.10;61.23
67275;DHT22;55463;52.324;5.122;2023-03-01T15:53:24;7.00;62.10
67275;DHT22;55463;52.324;5.122;2023-03-01T15:55:49;6.94;62.13
67275;DHT22;55463;52.324;5.122;2023-03-01T15:58:21;6.83;63.04
67275;DHT22;55463;52.324;5.122;2023-03-01T16:00:48;7.01;62.19
67275;DHT22;55463;52.324;5.122;2023-03-01T16:03:15;7.44;60.94
67275;DHT22;55463;52.324;5.122;2023-03-01T16:05:47;7.82;60.67
67275;DHT22;55463;52.324;5.122;2023-03-01T16:08:13;8.08;60.25
67275;DHT22;55463;52.324;5.122;2023-03-01T16:10:40;8.15;58.30
67275;DHT22;55463;52.324;5.122;2023-03-01T16:13:12;8.38;58.95
67275;DHT22;55463;52.324;5.122;2023-03-01T16:15:38;8.38;57.72
67275;DHT22;55463;52.324;5.122;2023-03-01T16:18:05;8.35;57.22
67275;DHT22;55463;52.324;5.122;2023-03-01T16:20:31;8.32;58.21
67275;DHT22;55463;52.324;5.122;2023-03-01T16:22:58;8.28;57.43
67275;DHT22;55463;52.324;5.122;2023-03-01T16:25:25;8.27;58.56
67275;DHT22;55463;52.324;5.122;2023-03-01T16:27:51;8.24;58.32
67275;DHT22;55463;52.324;5.122;2023-03-01T16:30:19;8.15;58.67
67275;DHT22;55463;52.324;5.122;2023-03-01T16:32:47;8.08;59.72
67275;DHT22;55463;52.324;5.122;2023-03-01T16:35:14;8.03;60.15
67275;DHT22;55463;52.324;5.122;2023-03-01T16:37:40;7.89;60.69
67275;DHT22;55463;52.324;5.122;2023-03-01T16:40:16;7.89;61.86
67275;DHT22;55463;52.324;5.122;2023-03-01T16:42:41;7.75;61.70
67275;DHT22;55463;52.324;5.122;2023-03-01T16:45:08;7.59;63.41
67275;DHT22;55463;52.324;5.122;2023-03-01T16:47:36;7.35;63.56
67275;DHT22;55463;52.324;5.122;2023-03-01T16:50:01;7.15;63.09
67275;DHT22;55463;52.324;5.122;2023-03-01T16:52:27;6.99;64.16
67275;DHT22;55463;52.324;5.122;2023-03-01T16:54:52;6.77;65.31
67275;DHT22;55463;52.324;5.122;2023-03-01T16:57:18;6.46;66.45
67275;DHT22;55463;52.324;5.122;2023-03-01T16:59:44;6.16;67.23
67275;DHT22;55463;52.324;5.122;2023-03-01T17:02:10;5.87;67.90
67275;DHT22;55463;52.324;5.122;2023-03-01T17:04:38;5.51;69.45
67275;DHT22;55463;52.324;5.122;2023-03-01T17:07:04;5.38;70.10
67275;DHT22;55463;52.324;5.122;2023-03-01T17:09:29;5.16;70.88
67275;DHT22;55463;52.324;5.122;2023-03-01T17:11:54;4.95;71.65
67275;DHT22;55463;52.324;5.122;2023-03-01T17:14:20;4.86;72.00
67275;DHT22;55463;52.324;5.122;2023-03-01T17:16:46;4.59;72.52
67275;DHT22;55463;52.324;5.122;2023-03-01T17:19:11;4.42;73.35
67275;DHT22;55463;52.324;5.122;2023-03-01T17:21:43;4.21;74.28
67275;DHT22;55463;52.324;5.122;2023-03-01T17:24:08;4.24;74.42
67275;DHT22;55463;52.324;5.122;2023-03-01T17:26:33;4.11;74.31
67275;DHT22;55463;52.324;5.122;2023-03-01T17:28:59;4.03;74.87
67275;DHT22;55463;52.324;5.122;2023-03-01T17:31:25;4.09;74.39
67275;DHT22;55463;52.324;5.122;2023-03-01T17:33:50;4.00;74.49